Time;durP1;ratioP1;P1;durP2;ratioP2;P2;SDS_P1;SDS_P2;PMS_P1;PMS_P2;Temp;Humidity;BMP_temperature;BMP_pressure;BME280_temperature;BME280_humidity;BME280_pressure;Samples;Min_cycle;Max_cycle;Signal;HPM_P1;HPM_P2
2022/04/03 00:00:41;;;;;;;0.80;0.10;;;21.30;30.00;;;;;;5078891;28;20221;-61
2022/04/03 00:03:10;;;;;;;0.10;0.10;;;21.30;30.00;;;;;;5079263;28;20037;-62
2022/04/03 00:05:41;;;;;;;0.30;0.20;;;21.30;30.60;;;;;;5076795;28;20127;-62
2022/04/03 00:08:12;;;;;;;0.20;0.20;;;21.20;30.00;;;;;;5077244;28;20032;-63
2022/04/03 00:10:40;;;;;;;1.17;0.20;;;21.30;30.30;;;;;;5078292;28;20035;-62
2022/04/03 00:13:08;;;;;;;1.55;0.40;;;21.20;30.10;;;;;;5078995;28;20520;-61
2022/04/03 00:15:41;;;;;;;2.85;0.32;;;21.20;30.10;;;;;;5080793;28;20050;-61
2022/04/03 00:18:08;;;;;;;0.63;0.10;;;21.20;30.40;;;;;;5072131;28;20488;-62
2022/04/03 00:20:38;;;;;;;0.13;0.10;;;21.20;30.30;;;;;;5076753;28;20618;-61
2022/04/03 00:23:07;;;;;;;1.75;0.10;;;21.20;30.30;;;;;;5078943;28;20552;-61
2022/04/03 00:25:35;;;;;;;0.10;0.10;;;21.10;30.30;;;;;;5076690;28;20052;-61
2022/04/03 00:28:02;;;;;;;0.38;0.20;;;21.20;31.10;;;;;;5076933;28;20133;-61
2022/04/03 00:30:29;;;;;;;0.17;0.17;;;21.10;30.50;;;;;;5075696;28;20043;-61
2022/04/03 00:32:56;;;;;;;0.25;0.20;;;21.10;30.50;;;;;;5077834;28;20047;-61
2022/04/03 00:35:24;;;;;;;0.10;0.10;;;21.10;30.60;;;;;;5074448;28;20068;-62
2022/04/03 00:37:53;;;;;;;2.13;0.10;;;21.10;30.60;;;;;;5077956;28;20047;-61
2022/04/03 00:40:23;;;;;;;0.50;0.10;;;21.10;30.60;;;;;;5078419;28;20040;-61
2022/04/03 00:42:50;;;;;;;0.43;0.43;;;21.10;30.60;;;;;;5092760;28;20070;-62
2022/04/03 00:45:17;;;;;;;0.20;0.20;;;21.10;30.60;;;;;;5073596;28;20037;-60
2022/04/03 00:47:45;;;;;;;1.55;0.10;;;21.10;30.70;;;;;;5076064;28;20044;-61
2022/04/03 00:50:12;;;;;;;0.10;0.10;;;21.00;30.60;;;;;;5079206;28;20051;-62
2022/04/03 00:52:39;;;;;;;0.13;0.10;;;21.00;30.70;;;;;;5075418;28;20421;-61
2022/04/03 00:55:09;;;;;;;0.10;0.10;;;21.00;30.70;;;;;;5078847;28;20038;-62
2022/04/03 00:57:37;;;;;;;0.17;0.10;;;21.10;30.80;;;;;;5074816;28;20540;-63
2022/04/03 01:00:05;;;;;;;0.10;0.10;;;21.10;30.80;;;;;;5075248;28;20052;-65
2022/04/03 01:02:33;;;;;;;0.10;0.10;;;21.00;30.70;;;;;;5075781;28;20110;-64
2022/04/03 01:05:00;;;;;;;1.05;0.40;;;21.10;30.90;;;;;;5075809;28;20052;-60
2022/04/03 01:07:27;;;;;;;1.13;0.10;;;21.00;30.80;;;;;;5075533;28;20040;-62
2022/04/03 01:09:55;;;;;;;0.20;0.20;;;21.00;31.10;;;;;;5073239;28;20810;-61
2022/04/03 01:12:23;;;;;;;1.25;0.55;;;21.00;31.40;;;;;;5074065;28;20143;-61
2022/04/03 01:14:51;;;;;;;0.57;0.10;;;21.00;32.50;;;;;;5078915;28;20523;-60
2022/04/03 01:17:18;;;;;;;0.75;0.10;;;20.90;32.10;;;;;;5080055;28;20040;-61
2022/04/03 01:19:45;;;;;;;0.75;0.10;;;20.90;32.40;;;;;;5083558;28;20052;-60
2022/04/03 01:22:13;;;;;;;1.35;0.10;;;20.80;32.50;;;;;;5084840;28;20042;-60
2022/04/03 01:24:44;;;;;;;0.57;0.03;;;20.70;32.60;;;;;;5082913;28;20048;-62
2022/04/03 01:27:12;;;;;;;0.75;0.30;;;20.70;32.80;;;;;;5078133;28;20037;-59
2022/04/03 01:29:40;;;;;;;4.05;0.10;;;20.60;32.90;;;;;;5077555;28;20150;-61
2022/04/03 01:32:10;;;;;;;1.55;0.32;;;20.60;33.10;;;;;;5080772;28;20036;-60
2022/04/03 01:34:37;;;;;;;0.43;0.08;;;20.50;33.20;;;;;;5078882;28;20051;-60
2022/04/03 01:37:04;;;;;;;0.13;0.00;;;20.50;33.30;;;;;;5081916;28;20047;-60
2022/04/03 01:39:32;;;;;;;0.17;0.10;;;20.40;33.30;;;;;;5081232;28;20102;-59
2022/04/03 01:42:00;;;;;;;0.40;0.10;;;20.40;33.50;;;;;;5076807;28;20046;-62
2022/04/03 01:44:29;;;;;;;2.15;0.20;;;20.30;33.50;;;;;;5076943;28;20583;-61
2022/04/03 01:46:56;;;;;;;0.50;0.08;;;20.30;33.70;;;;;;5080441;28;20044;-61
2022/04/03 01:49:23;;;;;;;1.10;0.10;;;20.30;33.80;;;;;;5080655;28;20135;-61
2022/04/03 01:51:50;;;;;;;1.45;0.10;;;20.20;33.90;;;;;;5079128;28;20043;-59
2022/04/03 01:54:17;;;;;;;0.20;0.10;;;20.20;34.00;;;;;;5075088;28;20036;-60
2022/04/03 01:56:45;;;;;;;0.00;0.00;;;20.10;34.10;;;;;;5079787;28;20063;-61
2022/04/03 01:59:12;;;;;;;0.47;0.35;;;20.10;34.20;;;;;;5077259;28;20528;-59
2022/04/03 02:01:41;;;;;;;0.32;0.10;;;20.00;34.30;;;;;;5073303;28;20041;-60
2022/04/03 02:04:08;;;;;;;0.30;0.10;;;20.00;34.50;;;;;;5076602;28;20074;-60
2022/04/03 02:06:35;;;;;;;3.45;0.05;;;20.00;34.60;;;;;;5076750;28;20052;-60
2022/04/03 02:09:04;;;;;;;0.30;0.05;;;20.00;34.60;;;;;;5070554;28;20106;-61
2022/04/03 02:11:31;;;;;;;0.10;0.10;;;19.90;35.00;;;;;;5079800;28;20071;-61
2022/04/03 02:13:58;;;;;;;1.55;0.50;;;20.00;35.20;;;;;;5076541;28;20037;-62
2022/04/03 02:16:25;;;;;;;3.50;0.00;;;20.00;35.30;;;;;;5078287;28;20044;-61
2022/04/03 02:18:54;;;;;;;0.10;0.08;;;20.00;35.40;;;;;;5083906;28;20040;-62
2022/04/03 02:21:21;;;;;;;1.60;0.00;;;20.00;35.50;;;;;;5081091;28;20101;-61
2022/04/03 02:23:48;;;;;;;0.40;0.00;;;20.00;35.60;;;;;;5078187;28;20047;-62
2022/04/03 02:26:15;;;;;;;1.98;0.10;;;20.00;35.50;;;;;;5068013;28;20083;-68
2022/04/03 02:28:42;;;;;;;0.98;0.10;;;20.00;35.60;;;;;;5080767;28;20524;-67
2022/04/03 02:31:09;;;;;;;0.10;0.10;;;20.00;35.70;;;;;;5080520;28;20040;-59
2022/04/03 02:33:37;;;;;;;2.72;0.10;;;20.00;34.90;;;;;;5067383;28;20048;-62
2022/04/03 02:36:06;;;;;;;1.75;0.20;;;20.00;35.10;;;;;;5070994;28;20068;-63
2022/04/03 02:38:34;;;;;;;9.07;0.10;;;20.10;35.20;;;;;;5073045;28;20778;-65
2022/04/03 02:41:01;;;;;;;1.38;0.13;;;20.30;35.30;;;;;;5078412;28;20048;-63
2022/04/03 02:43:28;;;;;;;2.08;0.25;;;20.40;35.10;;;;;;5072703;28;20138;-66
2022/04/03 02:45:56;;;;;;;0.57;0.20;;;20.60;35.10;;;;;;5070665;28;20044;-65
2022/04/03 02:48:23;;;;;;;3.65;0.10;;;20.70;34.80;;;;;;5075987;28;20052;-64
2022/04/03 02:50:50;;;;;;;0.95;0.10;;;20.80;34.60;;;;;;5067447;28;20148;-63
2022/04/03 02:53:19;;;;;;;2.92;0.45;;;21.00;34.30;;;;;;5066838;28;20048;-65
2022/04/03 02:55:46;;;;;;;1.17;0.57;;;21.10;33.80;;;;;;5065224;28;20576;-64
2022/04/03 02:58:13;;;;;;;0.20;0.10;;;21.20;33.90;;;;;;5078286;28;20068;-58
2022/04/03 03:00:40;;;;;;;0.80;0.10;;;21.30;33.70;;;;;;5066231;28;20118;-62
2022/04/03 03:03:09;;;;;;;4.35;0.10;;;21.40;33.40;;;;;;5071026;28;20064;-66
2022/04/03 03:05:38;;;;;;;0.50;0.10;;;21.50;33.50;;;;;;5064798;28;20420;-65
2022/04/03 03:08:05;;;;;;;4.13;0.20;;;21.70;33.50;;;;;;5080798;28;20036;-65
2022/04/03 03:10:34;;;;;;;0.28;0.10;;;21.70;33.20;;;;;;5076389;28;20037;-70
2022/04/03 03:13:02;;;;;;;1.63;0.10;;;21.80;32.80;;;;;;5084663;28;20047;-64
2022/04/03 03:15:29;;;;;;;2.58;0.10;;;21.90;32.70;;;;;;5071058;28;20147;-59
2022/04/03 03:17:56;;;;;;;0.25;0.10;;;22.00;32.80;;;;;;5077887;28;20046;-56
2022/04/03 03:20:23;;;;;;;3.13;0.68;;;22.00;32.90;;;;;;5072990;28;20044;-56
2022/04/03 03:22:51;;;;;;;0.68;0.10;;;22.10;32.80;;;;;;5072775;28;20979;-59
2022/04/03 03:25:18;;;;;;;14.43;0.52;;;22.10;32.70;;;;;;5072179;28;20062;-58
2022/04/03 03:27:46;;;;;;;1.88;0.45;;;22.10;32.60;;;;;;5078711;28;20569;-59
2022/04/03 03:30:14;;;;;;;1.88;0.10;;;22.20;32.30;;;;;;5077019;28;20504;-58
2022/04/03 03:32:41;;;;;;;2.47;0.38;;;22.20;32.10;;;;;;5074788;28;20130;-56
2022/04/03 03:35:10;;;;;;;4.65;0.40;;;22.10;32.10;;;;;;5069190;28;20526;-57
2022/04/03 03:37:38;;;;;;;3.53;0.25;;;22.20;32.10;;;;;;5074532;28;20139;-61
2022/04/03 03:40:11;;;;;;;3.42;0.28;;;22.10;32.20;;;;;;5077530;28;20045;-58
2022/04/03 03:42:40;;;;;;;5.88;0.82;;;22.10;32.20;;;;;;5073154;28;20055;-55
2022/04/03 03:45:09;;;;;;;2.42;0.80;;;22.00;32.20;;;;;;5074027;28;20743;-62
2022/04/03 03:47:36;;;;;;;5.80;0.22;;;22.00;33.00;;;;;;5074324;28;20051;-61
2022/04/03 03:50:05;;;;;;;0.63;0.28;;;21.90;32.40;;;;;;5070939;28;20040;-61
2022/04/03 03:52:32;;;;;;;2.67;0.43;;;21.90;32.50;;;;;;5068027;28;21045;-63
2022/04/03 03:54:59;;;;;;;3.08;0.32;;;21.90;32.70;;;;;;5080546;28;20040;-64
2022/04/03 03:57:26;;;;;;;3.60;0.10;;;21.90;32.80;;;;;;5078355;28;20089;-64
2022/04/03 03:59:53;;;;;;;2.17;0.30;;;21.90;32.80;;;;;;5078826;28;20050;-64
2022/04/03 04:02:22;;;;;;;3.00;0.30;;;21.90;33.60;;;;;;5071069;28;20043;-63
2022/04/03 04:04:49;;;;;;;2.67;0.90;;;21.90;33.90;;;;;;5074012;28;20035;-64
2022/04/03 04:07:16;;;;;;;6.97;0.98;;;21.90;34.20;;;;;;5070653;28;20048;-64
2022/04/03 04:09:45;;;;;;;2.38;0.20;;;21.80;34.20;;;;;;5078431;28;20135;-62
2022/04/03 04:12:12;;;;;;;7.90;0.45;;;21.90;34.40;;;;;;5081546;28;20064;-63
2022/04/03 04:14:40;;;;;;;1.20;0.40;;;21.90;34.20;;;;;;5078271;28;20068;-62
2022/04/03 04:17:08;;;;;;;0.80;0.15;;;21.80;34.00;;;;;;5077066;28;20044;-62
2022/04/03 04:19:37;;;;;;;1.60;0.13;;;21.80;33.90;;;;;;5081842;28;20052;-62
2022/04/03 04:22:05;;;;;;;1.45;0.60;;;21.80;33.70;;;;;;5083763;28;20036;-63
2022/04/03 04:24:32;;;;;;;2.28;0.40;;;21.80;33.70;;;;;;5077433;28;20109;-63
2022/04/03 04:26:59;;;;;;;1.75;0.60;;;21.90;33.60;;;;;;5079103;28;20035;-63
2022/04/03 04:29:27;;;;;;;1.05;0.35;;;21.80;33.40;;;;;;5076879;28;20055;-62
2022/04/03 04:31:54;;;;;;;1.88;0.60;;;21.80;33.40;;;;;;5079982;28;20042;-62
2022/04/03 04:34:21;;;;;;;1.60;0.50;;;21.80;33.20;;;;;;5080818;28;20075;-60
2022/04/03 04:36:50;;;;;;;3.05;0.68;;;21.80;33.20;;;;;;5080494;28;20047;-62
2022/04/03 04:39:17;;;;;;;3.97;0.52;;;21.80;33.20;;;;;;5080705;28;20099;-62
2022/04/03 04:41:44;;;;;;;1.20;0.35;;;21.80;33.10;;;;;;5062395;28;20047;-61
2022/04/03 04:44:11;;;;;;;0.75;0.10;;;21.80;33.10;;;;;;5078163;28;20050;-62
2022/04/03 04:46:39;;;;;;;0.90;0.25;;;21.80;33.00;;;;;;5082854;28;20048;-63
2022/04/03 04:49:06;;;;;;;0.20;0.20;;;21.80;33.00;;;;;;5076565;28;20048;-64
2022/04/03 04:51:33;;;;;;;1.15;0.28;;;21.80;33.00;;;;;;5076330;28;20066;-64
2022/04/03 04:54:01;;;;;;;1.52;0.43;;;21.80;32.90;;;;;;5080465;28;20127;-63
2022/04/03 04:56:30;;;;;;;2.55;0.38;;;21.80;33.50;;;;;;5075891;28;20032;-63
2022/04/03 04:58:57;;;;;;;1.52;1.08;;;21.80;32.80;;;;;;5074082;28;20044;-62
2022/04/03 05:01:24;;;;;;;5.68;0.73;;;21.70;32.70;;;;;;5076614;28;20051;-63
2022/04/03 05:03:51;;;;;;;3.13;0.28;;;21.80;32.80;;;;;;5079599;28;20040;-63
2022/04/03 05:06:22;;;;;;;0.90;0.20;;;21.70;32.70;;;;;;5081040;28;20246;-63
2022/04/03 05:08:50;;;;;;;2.15;0.35;;;21.80;32.70;;;;;;5079674;28;20037;-62
2022/04/03 05:11:19;;;;;;;4.97;0.17;;;21.70;32.60;;;;;;5073650;28;21087;-62
2022/04/03 05:13:47;;;;;;;3.67;0.17;;;21.70;32.60;;;;;;5077460;28;20530;-61
2022/04/03 05:16:14;;;;;;;0.60;0.10;;;21.70;32.50;;;;;;5075875;28;20050;-62
2022/04/03 05:18:41;;;;;;;2.92;0.10;;;21.70;32.50;;;;;;5079566;28;20664;-62
2022/04/03 05:21:10;;;;;;;1.65;0.45;;;21.70;32.50;;;;;;5077931;28;20044;-62
2022/04/03 05:23:37;;;;;;;3.40;0.40;;;21.70;32.50;;;;;;5076629;28;20053;-63
2022/04/03 05:26:05;;;;;;;2.65;0.10;;;21.70;32.40;;;;;;5074074;28;20036;-62
2022/04/03 05:28:35;;;;;;;0.50;0.20;;;21.70;32.50;;;;;;5075349;28;20063;-61
2022/04/03 05:31:02;;;;;;;0.57;0.10;;;21.70;32.40;;;;;;5078989;28;20036;-61
2022/04/03 05:33:30;;;;;;;0.75;0.43;;;21.70;32.40;;;;;;5082079;28;20063;-61
2022/04/03 05:35:57;;;;;;;0.82;0.40;;;21.70;32.40;;;;;;5075167;28;20115;-62
2022/04/03 05:38:24;;;;;;;1.30;0.65;;;21.70;32.40;;;;;;5077617;28;20106;-61
2022/04/03 05:40:51;;;;;;;1.90;0.60;;;21.70;32.40;;;;;;5079144;28;20121;-61
2022/04/03 05:43:18;;;;;;;1.25;0.13;;;21.60;32.20;;;;;;5077222;28;20044;-61
2022/04/03 05:45:47;;;;;;;0.88;0.10;;;21.70;32.40;;;;;;5076940;28;20098;-61
2022/04/03 05:48:14;;;;;;;0.65;0.32;;;21.70;32.40;;;;;;5077301;28;20064;-61
2022/04/03 05:50:42;;;;;;;1.65;0.20;;;21.60;32.30;;;;;;5076565;28;20610;-62
2022/04/03 05:53:09;;;;;;;0.60;0.10;;;21.60;32.30;;;;;;5073556;28;20040;-61
2022/04/03 05:55:36;;;;;;;0.60;0.20;;;21.60;32.40;;;;;;5072786;28;20076;-62
2022/04/03 05:58:04;;;;;;;2.47;0.30;;;21.60;32.30;;;;;;5073698;28;20044;-64
2022/04/03 06:00:31;;;;;;;17.90;1.95;;;21.60;32.90;;;;;;5071388;28;20486;-57
2022/04/03 06:03:01;;;;;;;10.77;2.00;;;21.50;33.50;;;;;;5073516;28;20048;-56
2022/04/03 06:05:30;;;;;;;16.75;2.65;;;21.40;34.00;;;;;;5067748;28;20456;-60
2022/04/03 06:07:58;;;;;;;11.50;1.63;;;21.40;34.50;;;;;;5071975;28;20054;-60
2022/04/03 06:10:26;;;;;;;13.15;1.55;;;21.20;34.70;;;;;;5068576;28;20551;-59
2022/04/03 06:12:59;;;;;;;10.50;1.67;;;21.10;35.00;;;;;;5077929;28;20488;-59
2022/04/03 06:15:29;;;;;;;11.57;1.02;;;21.10;35.30;;;;;;5069825;28;20051;-59
2022/04/03 06:17:56;;;;;;;15.35;1.45;;;20.90;35.50;;;;;;5073698;28;20117;-60
2022/04/03 06:20:25;;;;;;;9.65;1.30;;;20.90;35.70;;;;;;5070641;28;20404;-59
2022/04/03 06:22:52;;;;;;;16.58;2.00;;;20.80;35.70;;;;;;5071266;28;20158;-60
2022/04/03 06:25:21;;;;;;;14.48;2.55;;;20.70;35.80;;;;;;5069634;28;20048;-59
2022/04/03 06:27:48;;;;;;;5.80;1.17;;;20.70;35.90;;;;;;5083894;28;20112;-60
2022/04/03 06:30:16;;;;;;;10.70;0.93;;;20.60;36.00;;;;;;5079482;28;20040;-60
2022/04/03 06:32:43;;;;;;;9.68;1.15;;;20.60;36.00;;;;;;5069866;28;20048;-58
2022/04/03 06:35:11;;;;;;;1.50;0.52;;;20.50;36.10;;;;;;5068618;28;20538;-59
2022/04/03 06:37:39;;;;;;;7.75;0.80;;;20.50;36.10;;;;;;5070676;28;20049;-61
2022/04/03 06:40:08;;;;;;;4.68;0.60;;;20.40;36.20;;;;;;5085918;28;20044;-60
2022/04/03 06:42:36;;;;;;;4.97;0.43;;;20.40;36.30;;;;;;5073235;28;20257;-61
2022/04/03 06:45:04;;;;;;;3.83;0.32;;;20.30;36.20;;;;;;5076429;28;20567;-59
2022/04/03 06:47:32;;;;;;;6.97;0.47;;;20.30;36.20;;;;;;5073991;28;20044;-60
2022/04/03 06:49:59;;;;;;;5.53;0.90;;;20.30;36.20;;;;;;5069717;28;20569;-60
2022/04/03 06:52:26;;;;;;;3.70;1.08;;;20.20;36.20;;;;;;5074137;28;20052;-59
2022/04/03 06:54:55;;;;;;;1.02;0.22;;;20.20;36.30;;;;;;5081705;28;20628;-60
2022/04/03 06:57:22;;;;;;;5.57;0.60;;;20.20;36.30;;;;;;5076875;28;20120;-60
2022/04/03 06:59:50;;;;;;;9.40;0.40;;;20.10;36.30;;;;;;5083218;28;20408;-56
2022/04/03 07:02:17;;;;;;;4.43;1.02;;;20.10;36.30;;;;;;5081339;28;20150;-60
2022/04/03 07:04:45;;;;;;;2.88;0.55;;;20.10;36.30;;;;;;5068404;28;20036;-60
2022/04/03 07:07:20;;;;;;;5.32;1.13;;;20.00;36.30;;;;;;5070427;28;20143;-60
2022/04/03 07:09:47;;;;;;;5.03;2.07;;;20.00;36.30;;;;;;5080774;28;20032;-59
2022/04/03 07:12:16;;;;;;;3.47;0.50;;;20.00;36.30;;;;;;5079312;28;20317;-60
2022/04/03 07:14:43;;;;;;;4.95;0.40;;;20.00;36.30;;;;;;5073289;28;20715;-60
2022/04/03 07:17:11;;;;;;;2.53;0.30;;;20.00;36.30;;;;;;5071951;28;20036;-60
2022/04/03 07:19:38;;;;;;;4.95;0.40;;;19.90;36.30;;;;;;5073573;28;20106;-59
2022/04/03 07:22:05;;;;;;;1.83;0.17;;;19.90;36.30;;;;;;5080742;28;20059;-61
2022/04/03 07:24:32;;;;;;;3.38;0.30;;;19.90;36.20;;;;;;5073236;28;20055;-60
2022/04/03 07:27:00;;;;;;;2.53;0.20;;;19.90;36.20;;;;;;5078381;28;20040;-60
2022/04/03 07:29:28;;;;;;;6.40;0.73;;;19.90;36.20;;;;;;5079141;28;20044;-62
2022/04/03 07:31:56;;;;;;;1.35;0.20;;;19.90;36.10;;;;;;5069959;28;20044;-60
2022/04/03 07:34:24;;;;;;;2.00;0.20;;;19.90;36.10;;;;;;5073827;28;20062;-60
2022/04/03 07:36:51;;;;;;;1.65;0.10;;;19.90;36.10;;;;;;5077331;28;20036;-60
2022/04/03 07:39:18;;;;;;;2.15;0.20;;;19.90;36.10;;;;;;5073009;28;20067;-60
2022/04/03 07:41:45;;;;;;;2.90;0.20;;;19.90;36.10;;;;;;5075725;28;20122;-61
2022/04/03 07:44:14;;;;;;;0.68;0.20;;;19.90;36.10;;;;;;5077812;28;20043;-61
2022/04/03 07:46:42;;;;;;;2.38;0.45;;;19.90;36.10;;;;;;5073850;28;20094;-61
2022/04/03 07:49:10;;;;;;;0.98;0.77;;;19.90;36.10;;;;;;5074163;28;20055;-60
2022/04/03 07:51:38;;;;;;;1.58;0.20;;;19.90;36.00;;;;;;5080358;28;20040;-61
2022/04/03 07:54:05;;;;;;;4.75;0.20;;;19.90;36.00;;;;;;5082694;28;20054;-61
2022/04/03 07:56:32;;;;;;;0.52;0.30;;;19.90;36.00;;;;;;5076522;28;20032;-61
2022/04/03 07:58:59;;;;;;;0.95;0.10;;;19.90;35.90;;;;;;5080368;28;20048;-60
2022/04/03 08:01:26;;;;;;;2.80;0.30;;;19.90;35.90;;;;;;5074880;28;20084;-59
2022/04/03 08:03:55;;;;;;;0.52;0.10;;;19.90;35.80;;;;;;5079514;28;20049;-60
2022/04/03 08:06:22;;;;;;;0.22;0.20;;;19.90;35.80;;;;;;5072149;28;20071;-58
2022/04/03 08:08:49;;;;;;;0.30;0.20;;;19.90;35.70;;;;;;5076624;28;20040;-60
2022/04/03 08:11:17;;;;;;;0.40;0.10;;;19.90;35.70;;;;;;5074680;28;20488;-60
2022/04/03 08:13:45;;;;;;;0.82;0.10;;;20.00;36.30;;;;;;5067687;28;20044;-60
2022/04/03 08:16:13;;;;;;;0.50;0.10;;;19.90;35.60;;;;;;5084691;28;20131;-61
2022/04/03 08:18:40;;;;;;;0.52;0.10;;;19.90;35.60;;;;;;5076584;28;20106;-60
2022/04/03 08:21:11;;;;;;;0.40;0.20;;;20.00;35.70;;;;;;5071636;28;20052;-60
2022/04/03 08:23:38;;;;;;;1.23;0.20;;;19.90;35.50;;;;;;5073450;28;20055;-61
2022/04/03 08:26:06;;;;;;;0.20;0.05;;;20.00;35.60;;;;;;5070024;28;20067;-60
2022/04/03 08:28:33;;;;;;;0.20;0.10;;;19.90;35.40;;;;;;5085036;28;20058;-60
2022/04/03 08:31:00;;;;;;;0.20;0.20;;;19.90;35.50;;;;;;5073530;28;20040;-60
2022/04/03 08:33:27;;;;;;;1.52;0.20;;;19.90;35.50;;;;;;5069478;28;20045;-60
2022/04/03 08:35:54;;;;;;;0.25;0.10;;;19.90;35.40;;;;;;5074668;28;20148;-60
2022/04/03 08:38:23;;;;;;;0.10;0.10;;;19.90;35.40;;;;;;5082443;28;20074;-60
2022/04/03 08:40:50;;;;;;;1.45;0.17;;;20.00;35.40;;;;;;5067049;28;20553;-60
2022/04/03 08:43:18;;;;;;;0.20;0.20;;;19.90;35.30;;;;;;5071272;28;20144;-60
2022/04/03 08:45:45;;;;;;;0.30;0.15;;;19.90;35.30;;;;;;5075569;28;20713;-60
2022/04/03 08:48:15;;;;;;;0.30;0.10;;;20.00;35.90;;;;;;5071111;28;20112;-61
2022/04/03 08:50:43;;;;;;;0.17;0.10;;;20.00;35.30;;;;;;5073059;28;20036;-61
2022/04/03 08:53:10;;;;;;;1.30;0.10;;;19.90;35.20;;;;;;5082608;28;20048;-58
2022/04/03 08:55:38;;;;;;;0.52;0.15;;;19.90;35.20;;;;;;5077846;28;20076;-60
2022/04/03 08:58:06;;;;;;;0.82;0.10;;;19.90;35.20;;;;;;5082381;28;20097;-60
2022/04/03 09:00:33;;;;;;;0.08;0.05;;;19.90;35.20;;;;;;5076076;28;20048;-59
2022/04/03 09:03:01;;;;;;;0.00;0.00;;;19.90;35.10;;;;;;5079284;28;20058;-60
2022/04/03 09:05:46;;;;;;;1.30;0.10;;;19.90;35.10;;;;;;5071181;28;20036;-61
2022/04/03 09:08:14;;;;;;;0.95;0.05;;;20.00;35.10;;;;;;5070120;28;20420;-60
2022/04/03 09:10:42;;;;;;;0.10;0.10;;;19.90;35.10;;;;;;5071580;28;20051;-61
2022/04/03 09:13:11;;;;;;;0.15;0.03;;;19.90;35.00;;;;;;5087355;28;20044;-61
2022/04/03 09:15:39;;;;;;;1.25;0.13;;;20.00;35.10;;;;;;5071018;28;20044;-59
2022/04/03 09:18:08;;;;;;;0.17;0.17;;;20.00;35.00;;;;;;5077212;28;20050;-60
2022/04/03 09:20:37;;;;;;;0.45;0.35;;;19.90;34.90;;;;;;5079937;28;20130;-61
2022/04/03 09:23:06;;;;;;;0.20;0.10;;;20.00;34.90;;;;;;5068784;28;20045;-60
2022/04/03 09:25:35;;;;;;;0.10;0.10;;;20.00;34.80;;;;;;5070520;28;20040;-61
2022/04/03 09:28:06;;;;;;;2.47;0.13;;;20.00;34.80;;;;;;5077315;28;20094;-61
2022/04/03 09:30:35;;;;;;;0.45;0.10;;;20.00;34.80;;;;;;5070427;28;20040;-61
2022/04/03 09:33:05;;;;;;;0.40;0.10;;;20.00;34.70;;;;;;5073291;28;20071;-59
2022/04/03 09:35:53;;;;;;;0.10;0.10;;;20.00;34.70;;;;;;5071743;28;20417;-59
2022/04/03 09:38:20;;;;;;;1.38;0.10;;;20.00;34.80;;;;;;5070384;28;20127;-60
2022/04/03 09:40:50;;;;;;;0.13;0.00;;;20.00;34.70;;;;;;5066402;28;20036;-60
2022/04/03 09:43:22;;;;;;;0.30;0.10;;;20.00;34.70;;;;;;5073745;28;20500;-60
2022/04/03 09:45:51;;;;;;;0.25;0.00;;;20.10;34.70;;;;;;5078863;28;20052;-60
2022/04/03 09:48:26;;;;;;;0.20;0.13;;;20.00;34.60;;;;;;5070633;28;20151;-60
2022/04/03 09:50:59;;;;;;;0.10;0.07;;;20.10;34.60;;;;;;5075252;28;20063;-59
2022/04/03 09:53:26;;;;;;;0.85;0.40;;;20.10;34.60;;;;;;5071462;28;20499;-60
2022/04/03 09:55:54;;;;;;;0.10;0.10;;;20.10;34.50;;;;;;5075970;28;20820;-60
2022/04/03 09:58:23;;;;;;;0.10;0.10;;;20.10;34.40;;;;;;5080786;28;20051;-60
2022/04/03 10:00:51;;;;;;;0.75;0.40;;;20.10;34.40;;;;;;5076121;28;20040;-60
2022/04/03 10:03:19;;;;;;;0.50;0.10;;;20.10;34.30;;;;;;5078531;28;20538;-60
2022/04/03 10:05:46;;;;;;;1.10;0.10;;;20.10;34.30;;;;;;5080017;28;20543;-59
2022/04/03 10:08:13;;;;;;;0.40;0.10;;;20.20;34.30;;;;;;5069578;28;20109;-60
2022/04/03 10:10:40;;;;;;;0.25;0.10;;;20.20;34.30;;;;;;5071067;28;20047;-59
2022/04/03 10:13:10;;;;;;;0.10;0.03;;;20.20;34.30;;;;;;5072813;28;20040;-60
2022/04/03 10:15:38;;;;;;;0.40;0.10;;;20.20;34.20;;;;;;5079210;28;20044;-60
2022/04/03 10:18:06;;;;;;;1.65;0.10;;;20.20;34.20;;;;;;5080395;28;20040;-60
2022/04/03 10:20:37;;;;;;;0.10;0.10;;;20.20;34.10;;;;;;5070284;28;20094;-60
2022/04/03 10:23:10;;;;;;;1.55;0.10;;;20.20;34.10;;;;;;5068016;28;20053;-59
2022/04/03 10:25:41;;;;;;;0.10;0.10;;;20.30;34.10;;;;;;5082750;28;20037;-61
2022/04/03 10:28:10;;;;;;;0.40;0.10;;;20.30;34.00;;;;;;5085034;28;20044;-59
2022/04/03 10:30:43;;;;;;;0.00;0.00;;;20.30;34.00;;;;;;5070223;28;21021;-59
2022/04/03 10:33:19;;;;;;;0.08;0.08;;;20.30;33.90;;;;;;5073506;28;20037;-59
2022/04/03 10:35:48;;;;;;;0.10;0.00;;;20.30;33.90;;;;;;5073405;28;20140;-58
2022/04/03 10:38:15;;;;;;;0.20;0.10;;;20.30;33.80;;;;;;5071154;28;20040;-59
2022/04/03 10:40:59;;;;;;;0.13;0.00;;;20.30;33.70;;;;;;5065698;28;20044;-59
2022/04/03 10:43:30;;;;;;;0.65;0.10;;;20.40;33.70;;;;;;5069647;28;20090;-59
2022/04/03 10:45:59;;;;;;;0.38;0.10;;;20.40;33.70;;;;;;5073414;28;20448;-59
2022/04/03 10:48:31;;;;;;;1.25;0.00;;;20.40;33.60;;;;;;5069923;28;20500;-59
2022/04/03 10:51:10;;;;;;;0.35;0.00;;;20.40;33.50;;;;;;5074085;28;20044;-59
2022/04/03 10:53:40;;;;;;;0.20;0.00;;;20.50;33.50;;;;;;5069784;28;20534;-60
2022/04/03 10:56:11;;;;;;;0.88;0.10;;;20.50;33.40;;;;;;5072307;28;20045;-60
2022/04/03 10:58:42;;;;;;;1.75;0.10;;;20.50;33.30;;;;;;5079042;28;20098;-60
2022/04/03 11:01:24;;;;;;;0.10;0.00;;;20.50;33.30;;;;;;5074103;28;20048;-60
2022/04/03 11:04:00;;;;;;;0.10;0.00;;;20.60;33.20;;;;;;5073893;28;20505;-60
2022/04/03 11:06:32;;;;;;;0.00;0.00;;;20.60;33.10;;;;;;5073983;28;20451;-60
2022/04/03 11:09:08;;;;;;;0.35;0.00;;;20.60;33.00;;;;;;5074632;28;20415;-61
2022/04/03 11:11:38;;;;;;;0.25;0.25;;;20.70;32.90;;;;;;5069720;28;20075;-61
2022/04/03 11:14:07;;;;;;;0.10;0.10;;;20.70;32.80;;;;;;5066554;28;20132;-61
2022/04/03 11:16:54;;;;;;;0.63;0.00;;;20.80;32.70;;;;;;5068384;28;20067;-61
2022/04/03 11:19:40;;;;;;;0.10;0.00;;;20.80;32.50;;;;;;5071475;28;20050;-61
2022/04/03 11:22:10;;;;;;;2.25;0.00;;;20.90;32.40;;;;;;5070957;28;20064;-61
2022/04/03 11:24:39;;;;;;;0.52;0.03;;;20.90;32.50;;;;;;5072790;28;20519;-58
2022/04/03 11:27:07;;;;;;;0.43;0.00;;;20.90;32.40;;;;;;5075406;28;20051;-59
2022/04/03 11:29:34;;;;;;;0.10;0.00;;;20.90;32.40;;;;;;5082264;28;20055;-60
2022/04/03 11:32:06;;;;;;;0.45;0.10;;;21.00;32.30;;;;;;5070602;28;20044;-59
2022/04/03 11:34:34;;;;;;;0.28;0.10;;;21.00;32.30;;;;;;5074386;28;20068;-59
2022/04/03 11:37:05;;;;;;;1.80;0.13;;;21.10;32.30;;;;;;5080908;28;20052;-59
2022/04/03 11:39:36;;;;;;;0.10;0.10;;;21.10;32.20;;;;;;5072708;28;20040;-61
2022/04/03 11:42:06;;;;;;;0.00;0.00;;;21.20;32.20;;;;;;5078829;28;20044;-60
2022/04/03 11:44:37;;;;;;;0.10;0.00;;;21.30;32.20;;;;;;5072664;28;20040;-60
2022/04/03 11:47:07;;;;;;;0.10;0.00;;;21.30;32.10;;;;;;5070399;28;20047;-59
2022/04/03 11:49:36;;;;;;;0.00;0.00;;;21.40;32.00;;;;;;5072316;28;20074;-60
2022/04/03 11:52:09;;;;;;;0.77;0.10;;;21.40;31.90;;;;;;5078942;28;20068;-60
2022/04/03 11:54:37;;;;;;;0.10;0.10;;;21.40;31.80;;;;;;5074392;28;20040;-60
2022/04/03 11:57:06;;;;;;;0.10;0.00;;;21.50;31.80;;;;;;5079017;28;20064;-59
2022/04/03 11:59:35;;;;;;;0.63;0.05;;;21.50;31.70;;;;;;5083399;28;20048;-60
2022/04/03 12:02:11;;;;;;;0.22;0.10;;;21.60;31.70;;;;;;5072794;28;20559;-59
2022/04/03 12:04:40;;;;;;;0.00;0.00;;;21.70;31.60;;;;;;5068834;28;20468;-60
2022/04/03 12:07:12;;;;;;;0.00;0.00;;;21.70;31.60;;;;;;5077193;28;20037;-60
2022/04/03 12:09:40;;;;;;;1.08;0.00;;;21.80;31.70;;;;;;5077481;28;20118;-59
2022/04/03 12:12:08;;;;;;;0.10;0.10;;;21.80;31.60;;;;;;5076015;28;20048;-60
2022/04/03 12:14:37;;;;;;;0.10;0.10;;;21.90;32.20;;;;;;5073742;28;20094;-60
2022/04/03 12:17:06;;;;;;;0.70;0.00;;;21.90;31.50;;;;;;5085734;28;20108;-59
2022/04/03 12:19:37;;;;;;;0.52;0.08;;;22.00;31.50;;;;;;5078314;28;20135;-60
2022/04/03 12:22:08;;;;;;;0.10;0.10;;;22.00;31.40;;;;;;5073695;28;20505;-59
2022/04/03 12:24:36;;;;;;;0.10;0.10;;;22.10;31.40;;;;;;5075330;28;20398;-60
2022/04/03 12:27:07;;;;;;;0.63;0.00;;;22.10;31.30;;;;;;5077792;28;20086;-59
2022/04/03 12:29:37;;;;;;;0.30;0.03;;;22.20;31.30;;;;;;5072070;28;20051;-60
2022/04/03 12:32:06;;;;;;;0.08;0.08;;;22.20;31.20;;;;;;5069448;28;20068;-60
2022/04/03 12:34:36;;;;;;;0.10;0.00;;;22.20;31.20;;;;;;5072131;28;20047;-60
2022/04/03 12:37:05;;;;;;;1.35;0.00;;;22.30;31.10;;;;;;5073638;28;20136;-59
2022/04/03 12:39:37;;;;;;;0.13;0.00;;;22.30;31.10;;;;;;5073337;28;20101;-60
2022/04/03 12:42:19;;;;;;;0.10;0.00;;;22.40;31.10;;;;;;5076959;28;20039;-60
2022/04/03 12:44:50;;;;;;;0.08;0.00;;;22.50;31.00;;;;;;5071583;28;20066;-59
2022/04/03 12:47:20;;;;;;;0.40;0.25;;;22.50;31.00;;;;;;5070918;28;20039;-60
2022/04/03 12:49:50;;;;;;;0.00;0.00;;;22.50;30.90;;;;;;5068987;28;20056;-60
2022/04/03 12:52:41;;;;;;;0.55;0.00;;;22.60;31.40;;;;;;5073210;28;20476;-60